Astroworld, Texas
Current Conditions -  °F | °C
As of 7:55 PM on Friday 26 Dec 2014 (Local Time) from KMCJ Reporting Station
Overcast Overcast  
Wind Chill: 20°   Ceiling: 2000
Heat Index: 20°   Visibility: NA
Dew Point: 18°   Wind: 7mph
Humidity: 88%   Direction: 120°ESE
Pressure: 29.94"   Gusts: NA
Location:  29.6867°N, 95.4345°W
Report Text: KMCJ 270155Z AUTO 12006KT BKN020 OVC028 20/18 A2994 RMK AO1
Loading
Personal Weather Stations






























Interactive Weather Map New forecast layout! Learn more

10-Day Weather Forecast

Advertisements
Track Severe Weather on mobile